Terminal Aerodrome Forecast
Issued by NWS

Home | Current Version | Previous Version | Text Only | Print | Product List | Glossary On
Versions: 1 2 3 4 5 6 7 8 9 10 11 12 13 14 15
070
FTUS42 KTAE 202328
TAFECP
TAF
KECP 202328Z 2100/2124 20005KT P6SM SCT040 BKN200
     FM211800 20006KT 6SM -TSRA BKN035CB=

USA.gov is the U.S. government's official web portal to all federal, state and local government web resources and services.